createdAt,value
2018-04-19T00:01:17.926Z,17.20
2018-04-19T00:02:17.914Z,17.14
2018-04-19T00:04:11.483Z,17.05
2018-04-19T00:05:11.427Z,17.05
2018-04-19T00:07:05.095Z,17.14
2018-04-19T00:08:05.079Z,17.06
2018-04-19T00:09:58.835Z,17.01
2018-04-19T00:10:58.781Z,17.01
2018-04-19T00:12:52.367Z,16.97
2018-04-19T00:13:52.355Z,16.99
2018-04-19T00:15:46.023Z,16.99
2018-04-19T00:16:45.987Z,16.96
2018-04-19T00:18:39.688Z,16.91
2018-04-19T00:19:39.652Z,16.96
2018-04-19T00:21:33.252Z,16.97
2018-04-19T00:22:33.214Z,16.90
2018-04-19T00:24:28.656Z,16.87
2018-04-19T00:25:28.012Z,16.86
2018-04-19T00:27:21.688Z,16.84
2018-04-19T00:28:21.686Z,16.89
2018-04-19T00:30:16.113Z,16.83
2018-04-19T00:31:15.385Z,16.86
2018-04-19T00:33:09.068Z,16.87
2018-04-19T00:34:09.029Z,16.83
2018-04-19T00:36:02.578Z,16.81
2018-04-19T00:37:02.536Z,16.90
2018-04-19T00:38:56.120Z,16.87
2018-04-19T00:39:56.098Z,16.78
2018-04-19T00:41:50.549Z,16.68
2018-04-19T00:42:49.651Z,16.75
2018-04-19T00:44:43.224Z,16.58
2018-04-19T00:45:43.207Z,16.58
2018-04-19T00:47:37.648Z,16.57
2018-04-19T00:48:36.745Z,16.58
2018-04-19T00:50:31.196Z,16.56
2018-04-19T00:51:30.362Z,16.50
2018-04-19T00:53:23.940Z,16.41
2018-04-19T00:54:23.924Z,16.49
2018-04-19T00:56:17.632Z,16.38
2018-04-19T00:57:17.604Z,16.42
2018-04-19T00:59:12.041Z,16.41
2018-04-19T01:00:11.283Z,16.42
2018-04-19T01:02:05.723Z,16.36
2018-04-19T01:03:04.905Z,16.36
2018-04-19T01:04:58.591Z,16.41
2018-04-19T01:05:58.531Z,16.32
2018-04-19T01:07:52.399Z,16.33
2018-04-19T01:08:52.163Z,16.31
2018-04-19T01:09:52.162Z,16.31
2018-04-19T01:10:52.157Z,16.26
2018-04-19T01:11:52.150Z,16.28
2018-04-19T01:12:52.144Z,16.24
2018-04-19T01:13:52.140Z,16.26
2018-04-19T01:14:52.142Z,16.17
2018-04-19T01:15:52.133Z,16.24
2018-04-19T01:16:52.136Z,16.17
2018-04-19T01:17:52.123Z,16.21
2018-04-19T01:18:52.123Z,16.20
2018-04-19T01:19:52.114Z,16.15
2018-04-19T01:20:52.107Z,16.16
2018-04-19T01:21:52.097Z,16.15
2018-04-19T01:22:52.100Z,16.02
2018-04-19T01:23:52.089Z,16.01
2018-04-19T01:24:52.092Z,16.04
2018-04-19T01:25:52.081Z,16.04
2018-04-19T01:26:52.075Z,16.02
2018-04-19T01:27:52.074Z,16.12
2018-04-19T01:28:52.069Z,16.09
2018-04-19T01:29:52.065Z,15.97
2018-04-19T01:30:52.053Z,15.92
2018-04-19T01:31:52.053Z,15.97
2018-04-19T01:32:52.044Z,16.02
2018-04-19T01:33:52.279Z,15.84
2018-04-19T01:34:52.037Z,16.00
2018-04-19T01:35:52.034Z,16.00
2018-04-19T01:36:52.030Z,15.97
2018-04-19T01:37:52.027Z,15.91
2018-04-19T01:38:52.022Z,15.88
2018-04-19T01:39:52.009Z,15.88
2018-04-19T01:40:52.015Z,15.98
2018-04-19T01:41:52.001Z,15.92
2018-04-19T01:42:51.997Z,15.77
2018-04-19T01:43:51.993Z,15.86
2018-04-19T01:44:51.990Z,15.84
2018-04-19T01:45:51.988Z,15.77
2018-04-19T01:46:51.974Z,15.84
2018-04-19T01:47:51.968Z,15.82
2018-04-19T01:48:51.964Z,15.72
2018-04-19T01:49:51.963Z,15.80
2018-04-19T01:50:51.957Z,15.80
2018-04-19T01:51:51.950Z,15.79
2018-04-19T01:52:51.948Z,15.70
2018-04-19T01:53:51.941Z,15.72
2018-04-19T01:54:51.935Z,15.68
2018-04-19T01:55:51.937Z,15.68
2018-04-19T01:56:51.927Z,15.73
2018-04-19T01:57:51.924Z,15.72
2018-04-19T01:58:51.915Z,15.64
2018-04-19T01:59:51.956Z,15.68
2018-04-19T02:00:51.905Z,15.64
2018-04-19T02:01:51.902Z,15.62
2018-04-19T02:02:51.891Z,15.59
2018-04-19T02:03:51.885Z,15.58
2018-04-19T02:04:51.885Z,15.54
2018-04-19T02:05:51.882Z,15.47
2018-04-19T02:06:51.887Z,15.49
2018-04-19T02:07:51.865Z,15.51
2018-04-19T02:08:51.862Z,15.47
2018-04-19T02:09:51.858Z,15.55
2018-04-19T02:10:51.851Z,15.51
2018-04-19T02:11:51.852Z,15.52
2018-04-19T02:12:51.843Z,15.49
2018-04-19T02:13:51.838Z,15.39
2018-04-19T02:14:51.829Z,15.40
2018-04-19T02:15:51.823Z,15.37
2018-04-19T02:16:51.826Z,15.44
2018-04-19T02:17:51.821Z,15.35
2018-04-19T02:18:51.815Z,15.40
2018-04-19T02:19:51.811Z,15.40
2018-04-19T02:20:51.801Z,15.36
2018-04-19T02:21:51.798Z,15.36
2018-04-19T02:22:51.788Z,15.40
2018-04-19T02:23:51.786Z,15.31
2018-04-19T02:24:51.775Z,15.33
2018-04-19T02:25:51.776Z,15.36
2018-04-19T02:26:51.772Z,15.31
2018-04-19T02:27:51.767Z,15.36
2018-04-19T02:28:51.756Z,15.35
2018-04-19T02:29:51.751Z,15.33
2018-04-19T02:30:51.750Z,15.35
2018-04-19T02:31:51.743Z,15.31
2018-04-19T02:32:51.740Z,15.35
2018-04-19T02:33:51.738Z,15.35
2018-04-19T02:34:51.726Z,15.19
2018-04-19T02:35:51.720Z,15.24
2018-04-19T02:36:51.714Z,15.31
2018-04-19T02:37:51.718Z,15.31
2018-04-19T02:38:51.711Z,15.31
2018-04-19T02:39:51.699Z,15.28
2018-04-19T02:40:51.696Z,15.24
2018-04-19T02:41:51.690Z,15.15
2018-04-19T02:42:51.681Z,15.21
2018-04-19T02:43:51.676Z,15.14
2018-04-19T02:44:51.673Z,15.21
2018-04-19T02:45:51.668Z,15.17
2018-04-19T02:46:51.661Z,15.25
2018-04-19T02:47:51.657Z,15.18
2018-04-19T02:48:51.659Z,15.14
2018-04-19T02:49:51.643Z,15.17
2018-04-19T02:50:51.639Z,15.10
2018-04-19T02:51:51.633Z,15.07
2018-04-19T02:52:51.630Z,15.10
2018-04-19T02:53:51.625Z,15.03
2018-04-19T02:54:51.620Z,15.06
2018-04-19T02:55:51.617Z,15.17
2018-04-19T02:56:51.604Z,15.11
2018-04-19T02:57:51.601Z,15.06
2018-04-19T02:58:51.603Z,15.17
2018-04-19T02:59:51.592Z,15.06
2018-04-19T03:00:51.585Z,15.10
2018-04-19T03:01:51.581Z,15.06
2018-04-19T03:02:51.574Z,14.99
2018-04-19T03:03:51.569Z,15.03
2018-04-19T03:04:51.563Z,14.94
2018-04-19T03:05:51.564Z,15.02
2018-04-19T03:06:51.558Z,14.97
2018-04-19T03:07:51.547Z,14.91
2018-04-19T03:08:51.543Z,14.94
2018-04-19T03:09:51.539Z,14.96
2018-04-19T03:10:51.530Z,14.94
2018-04-19T03:11:51.523Z,14.85
2018-04-19T03:12:51.519Z,14.84
2018-04-19T03:13:51.516Z,14.91
2018-04-19T03:14:51.511Z,14.86
2018-04-19T03:15:51.504Z,14.85
2018-04-19T03:16:51.497Z,14.85
2018-04-19T03:17:51.489Z,14.81
2018-04-19T03:18:51.485Z,14.79
2018-04-19T03:19:51.477Z,14.85
2018-04-19T03:20:51.471Z,14.81
2018-04-19T03:21:51.465Z,14.70
2018-04-19T03:22:51.464Z,14.68
2018-04-19T03:23:51.457Z,14.65
2018-04-19T03:24:51.449Z,14.68
2018-04-19T03:25:51.445Z,14.68
2018-04-19T03:26:51.445Z,14.62
2018-04-19T03:27:51.437Z,14.60
2018-04-19T03:28:51.432Z,14.62
2018-04-19T03:29:51.424Z,14.65
2018-04-19T03:30:51.415Z,14.55
2018-04-19T03:31:51.412Z,14.54
2018-04-19T03:32:51.407Z,14.60
2018-04-19T03:33:51.405Z,14.55
2018-04-19T03:34:51.398Z,14.59
2018-04-19T03:35:51.393Z,14.58
2018-04-19T03:36:51.389Z,14.51
2018-04-19T03:37:51.382Z,14.51
2018-04-19T03:38:51.369Z,14.60
2018-04-19T03:39:51.363Z,14.62
2018-04-19T03:40:51.361Z,14.60
2018-04-19T03:41:51.361Z,14.54
2018-04-19T03:42:51.355Z,14.54
2018-04-19T03:43:51.344Z,14.47
2018-04-19T03:44:51.341Z,14.48
2018-04-19T03:45:51.333Z,14.51
2018-04-19T03:46:51.331Z,14.47
2018-04-19T03:47:51.319Z,14.45
2018-04-19T03:48:51.317Z,14.41
2018-04-19T03:49:51.313Z,14.36
2018-04-19T03:50:51.307Z,14.40
2018-04-19T03:51:51.294Z,14.35
2018-04-19T03:52:51.293Z,14.36
2018-04-19T03:53:51.340Z,14.35
2018-04-19T03:54:51.284Z,14.33
2018-04-19T03:55:51.279Z,14.41
2018-04-19T03:56:51.265Z,14.32
2018-04-19T03:57:51.262Z,14.32
2018-04-19T03:58:51.259Z,14.37
2018-04-19T03:59:51.250Z,14.37
2018-04-19T04:00:51.247Z,14.29
2018-04-19T04:01:51.257Z,14.36
2018-04-19T04:02:51.233Z,14.32
2018-04-19T04:03:51.231Z,14.28
2018-04-19T04:04:51.225Z,14.36
2018-04-19T04:05:51.220Z,14.28
2018-04-19T04:06:51.210Z,14.26
2018-04-19T04:07:51.206Z,14.28
2018-04-19T04:08:51.242Z,14.17
2018-04-19T04:09:51.196Z,14.26
2018-04-19T04:10:51.192Z,14.18
2018-04-19T04:11:51.188Z,14.08
2018-04-19T04:12:51.185Z,14.15
2018-04-19T04:13:51.170Z,14.14
2018-04-19T04:14:51.164Z,14.25
2018-04-19T04:15:51.165Z,14.26
2018-04-19T04:16:51.153Z,14.25
2018-04-19T04:17:51.152Z,14.17
2018-04-19T04:18:51.145Z,14.15
2018-04-19T04:19:51.137Z,14.15
2018-04-19T04:20:51.129Z,14.18
2018-04-19T04:21:51.126Z,14.20
2018-04-19T04:22:51.121Z,14.15
2018-04-19T04:23:51.115Z,14.15
2018-04-19T04:24:51.110Z,14.17
2018-04-19T04:25:51.101Z,14.15
2018-04-19T04:26:51.094Z,14.17
2018-04-19T04:27:51.088Z,14.20
2018-04-19T04:28:51.090Z,14.26
2018-04-19T04:29:51.084Z,14.25
2018-04-19T04:30:51.073Z,14.23
2018-04-19T04:31:51.069Z,14.14
2018-04-19T04:32:51.061Z,14.22
2018-04-19T04:33:51.055Z,14.17
2018-04-19T04:34:51.046Z,14.20
2018-04-19T04:35:51.040Z,14.17
2018-04-19T04:36:51.036Z,14.22
2018-04-19T04:37:51.030Z,14.17
2018-04-19T04:38:51.030Z,14.23
2018-04-19T04:39:51.017Z,14.17
2018-04-19T04:40:51.015Z,14.20
2018-04-19T04:41:51.025Z,14.18
2018-04-19T04:42:51.003Z,14.18
2018-04-19T04:43:50.995Z,14.25
2018-04-19T04:44:50.989Z,14.22
2018-04-19T04:45:50.985Z,14.28
2018-04-19T04:46:50.978Z,14.25
2018-04-19T04:47:50.971Z,14.25
2018-04-19T04:48:50.962Z,14.26
2018-04-19T04:49:50.960Z,14.30
2018-04-19T04:50:50.955Z,14.28
2018-04-19T04:51:50.948Z,14.26
2018-04-19T04:52:50.943Z,14.37
2018-04-19T04:53:50.933Z,14.33
2018-04-19T04:54:50.928Z,14.37
2018-04-19T04:55:50.924Z,14.40
2018-04-19T04:56:50.919Z,14.43
2018-04-19T04:57:50.908Z,14.36
2018-04-19T04:58:50.905Z,14.43
2018-04-19T04:59:50.895Z,14.36
2018-04-19T05:00:50.895Z,14.44
2018-04-19T05:01:50.884Z,14.53
2018-04-19T05:02:50.883Z,14.54
2018-04-19T05:03:50.875Z,14.54
2018-04-19T05:04:50.871Z,14.58
2018-04-19T05:05:50.863Z,14.58
2018-04-19T05:06:50.861Z,14.66
2018-04-19T05:07:50.850Z,14.69
2018-04-19T05:08:50.844Z,14.65
2018-04-19T05:09:50.839Z,14.73
2018-04-19T05:10:50.841Z,14.84
2018-04-19T05:11:50.832Z,14.79
2018-04-19T05:12:50.829Z,14.81
2018-04-19T05:13:50.818Z,14.91
2018-04-19T05:14:50.815Z,14.91
2018-04-19T05:15:50.808Z,14.97
2018-04-19T05:16:50.804Z,14.94
2018-04-19T05:17:50.817Z,15.00
2018-04-19T05:18:50.798Z,15.09
2018-04-19T05:19:50.790Z,15.09
2018-04-19T05:20:50.786Z,15.25
2018-04-19T05:21:50.777Z,15.18
2018-04-19T05:22:50.773Z,15.36
2018-04-19T05:23:50.771Z,15.31
2018-04-19T05:24:50.773Z,15.39
2018-04-19T05:25:50.767Z,15.52
2018-04-19T05:26:50.761Z,15.68
2018-04-19T05:27:50.756Z,15.80
2018-04-19T05:28:50.747Z,15.97
2018-04-19T05:29:50.746Z,16.10
2018-04-19T05:30:50.744Z,16.04
2018-04-19T05:31:50.736Z,16.13
2018-04-19T05:32:50.738Z,16.26
2018-04-19T05:33:50.732Z,16.23
2018-04-19T05:34:51.566Z,16.36
2018-04-19T05:35:50.725Z,16.31
2018-04-19T05:36:50.719Z,16.38
2018-04-19T05:37:50.715Z,16.33
2018-04-19T05:38:50.713Z,16.33
2018-04-19T05:39:50.711Z,16.26
2018-04-19T05:40:50.706Z,16.23
2018-04-19T05:41:50.702Z,16.28
2018-04-19T05:42:50.695Z,16.16
2018-04-19T05:43:50.716Z,16.21
2018-04-19T05:44:50.691Z,16.17
2018-04-19T05:45:50.695Z,16.21
2018-04-19T05:46:50.687Z,16.26
2018-04-19T05:47:50.685Z,16.35
2018-04-19T05:48:50.679Z,16.32
2018-04-19T05:49:50.682Z,16.39
2018-04-19T05:50:50.673Z,16.47
2018-04-19T05:51:50.674Z,16.49
2018-04-19T05:52:50.671Z,16.38
2018-04-19T05:53:50.667Z,16.41
2018-04-19T05:54:50.663Z,16.39
2018-04-19T05:55:50.653Z,16.46
2018-04-19T05:56:50.655Z,16.33
2018-04-19T05:57:50.652Z,16.38
2018-04-19T05:58:50.649Z,16.38
2018-04-19T05:59:50.647Z,16.39
2018-04-19T06:00:50.643Z,16.35
2018-04-19T06:01:50.636Z,16.38
2018-04-19T06:02:50.638Z,16.36
2018-04-19T06:03:50.629Z,16.46
2018-04-19T06:04:50.633Z,16.46
2018-04-19T06:05:50.626Z,16.51
2018-04-19T06:06:50.623Z,16.47
2018-04-19T06:07:50.619Z,16.61
2018-04-19T06:08:50.618Z,16.56
2018-04-19T06:09:50.611Z,16.57
2018-04-19T06:10:50.605Z,16.69
2018-04-19T06:11:50.601Z,16.66
2018-04-19T06:12:50.607Z,16.71
2018-04-19T06:13:50.616Z,16.72
2018-04-19T06:14:50.596Z,16.68
2018-04-19T06:15:50.640Z,16.75
2018-04-19T06:16:50.593Z,16.74
2018-04-19T06:17:50.583Z,16.71
2018-04-19T06:18:50.575Z,16.72
2018-04-19T06:19:50.589Z,16.83
2018-04-19T06:20:50.576Z,16.87
2018-04-19T06:21:50.565Z,16.97
2018-04-19T06:22:50.569Z,17.02
2018-04-19T06:23:50.559Z,16.96
2018-04-19T06:24:50.572Z,17.05
2018-04-19T06:25:50.555Z,17.15
2018-04-19T06:26:50.552Z,17.02
2018-04-19T06:27:50.554Z,17.14
2018-04-19T06:28:50.541Z,17.14
2018-04-19T06:29:50.544Z,17.08
2018-04-19T06:30:50.535Z,17.08
2018-04-19T06:31:50.532Z,17.22
2018-04-19T06:32:50.526Z,17.16
2018-04-19T06:33:50.525Z,17.23
2018-04-19T06:34:50.522Z,17.27
2018-04-19T06:35:50.520Z,17.29
2018-04-19T06:36:50.515Z,17.30
2018-04-19T06:37:50.511Z,17.34
2018-04-19T06:38:50.514Z,17.41
2018-04-19T06:39:50.503Z,17.45
2018-04-19T06:40:50.499Z,17.42
2018-04-19T06:41:50.500Z,17.42
2018-04-19T06:42:50.494Z,17.42
2018-04-19T06:43:50.495Z,17.39
2018-04-19T06:44:50.490Z,17.39
2018-04-19T06:45:50.481Z,17.42
2018-04-19T06:46:50.478Z,17.52
2018-04-19T06:47:51.092Z,17.57
2018-04-19T06:48:50.480Z,17.54
2018-04-19T06:49:50.468Z,17.65
2018-04-19T06:50:50.470Z,17.82
2018-04-19T06:51:50.461Z,17.87
2018-04-19T06:52:50.460Z,17.86
2018-04-19T06:53:50.459Z,17.92
2018-04-19T06:54:50.459Z,18.03
2018-04-19T06:55:50.456Z,18.03
2018-04-19T06:56:50.447Z,18.10
2018-04-19T06:57:50.449Z,18.22
2018-04-19T06:58:50.447Z,18.31
2018-04-19T06:59:50.435Z,18.26
2018-04-19T07:00:50.433Z,18.37
2018-04-19T07:01:50.431Z,18.44
2018-04-19T07:02:50.427Z,18.37
2018-04-19T07:03:50.428Z,18.41
2018-04-19T07:04:50.424Z,18.52
2018-04-19T07:05:50.417Z,18.55
2018-04-19T07:06:50.410Z,18.66
2018-04-19T07:07:50.407Z,18.62
2018-04-19T07:08:50.423Z,18.77
2018-04-19T07:09:50.434Z,18.71
2018-04-19T07:10:50.400Z,18.74
2018-04-19T07:11:50.400Z,18.74
2018-04-19T07:12:50.396Z,18.90
2018-04-19T07:13:50.390Z,18.84
2018-04-19T07:14:50.387Z,18.93
2018-04-19T07:15:50.384Z,18.98
2018-04-19T07:16:50.379Z,18.98
2018-04-19T07:17:50.377Z,19.09
2018-04-19T07:18:50.373Z,19.19
2018-04-19T07:19:50.370Z,19.21
2018-04-19T07:20:50.362Z,19.27
2018-04-19T07:21:50.360Z,19.36
2018-04-19T07:22:50.358Z,19.31
2018-04-19T07:23:50.367Z,19.44
2018-04-19T07:24:50.355Z,19.41
2018-04-19T07:25:50.388Z,19.54
2018-04-19T07:26:50.341Z,19.63
2018-04-19T07:27:50.340Z,19.67
2018-04-19T07:28:50.352Z,19.67
2018-04-19T07:29:50.340Z,19.77
2018-04-19T07:30:50.334Z,19.79
2018-04-19T07:31:50.327Z,19.89
2018-04-19T07:32:50.328Z,19.89
2018-04-19T07:33:50.325Z,19.96
2018-04-19T07:34:50.321Z,20.09
2018-04-19T07:35:50.321Z,20.07
2018-04-19T07:36:50.317Z,20.26
2018-04-19T07:37:50.315Z,20.28
2018-04-19T07:38:50.324Z,20.34
2018-04-19T07:39:50.308Z,20.47
2018-04-19T07:40:50.307Z,20.63
2018-04-19T07:41:50.301Z,20.62
2018-04-19T07:42:50.299Z,20.69
2018-04-19T07:43:50.296Z,20.81
2018-04-19T07:44:50.301Z,20.80
2018-04-19T07:45:50.296Z,20.95
2018-04-19T07:46:50.294Z,20.96
2018-04-19T07:47:50.297Z,21.06
2018-04-19T07:48:50.288Z,21.11
2018-04-19T07:49:50.297Z,21.15
2018-04-19T07:50:50.293Z,21.25
2018-04-19T07:51:50.287Z,21.32
2018-04-19T07:52:50.287Z,21.35
2018-04-19T07:53:50.289Z,21.46
2018-04-19T07:54:50.285Z,21.43
2018-04-19T07:55:52.097Z,21.46
2018-04-19T07:56:51.133Z,21.57
2018-04-19T07:57:52.754Z,21.67
2018-04-19T07:58:51.633Z,21.64
2018-04-19T07:59:52.934Z,21.80
2018-04-19T08:00:50.294Z,21.96
2018-04-19T08:01:50.490Z,22.14
2018-04-19T08:02:50.283Z,22.13
2018-04-19T08:03:50.281Z,22.28
2018-04-19T08:04:50.283Z,22.29
2018-04-19T08:05:50.283Z,22.41
2018-04-19T08:06:50.285Z,22.51
2018-04-19T08:07:50.291Z,22.50
2018-04-19T08:08:50.285Z,22.60
2018-04-19T08:09:50.287Z,22.80
2018-04-19T08:10:50.284Z,22.94
2018-04-19T08:11:50.287Z,23.09
2018-04-19T08:12:50.293Z,23.25
2018-04-19T08:13:50.289Z,23.50
2018-04-19T08:14:50.293Z,23.99
2018-04-19T08:15:50.297Z,24.24
2018-04-19T08:16:50.302Z,24.36
2018-04-19T08:17:50.303Z,24.66
2018-04-19T08:18:50.320Z,25.11
2018-04-19T08:19:50.309Z,25.22
2018-04-19T08:20:50.310Z,25.17
2018-04-19T08:21:50.343Z,25.25
2018-04-19T08:22:50.322Z,25.44
2018-04-19T08:23:50.323Z,25.48
2018-04-19T08:24:50.330Z,25.51
2018-04-19T08:25:50.337Z,25.69
2018-04-19T08:26:50.342Z,25.54
2018-04-19T08:27:50.351Z,25.72
2018-04-19T08:28:50.360Z,25.50
2018-04-19T08:29:50.375Z,25.51
2018-04-19T08:30:50.368Z,25.73
2018-04-19T08:31:50.381Z,26.16
2018-04-19T08:32:50.379Z,26.07
2018-04-19T08:33:50.385Z,25.87
2018-04-19T08:34:50.396Z,25.88
2018-04-19T08:35:50.410Z,25.66
2018-04-19T08:36:50.414Z,25.66
2018-04-19T08:37:50.421Z,26.00
2018-04-19T08:38:50.428Z,26.28
2018-04-19T08:39:50.438Z,26.26
2018-04-19T08:40:50.439Z,26.22
2018-04-19T08:41:50.453Z,25.87
2018-04-19T08:42:50.456Z,25.69
2018-04-19T08:43:50.464Z,25.68
2018-04-19T08:44:50.474Z,25.68
2018-04-19T08:45:50.478Z,25.77
2018-04-19T08:46:50.491Z,25.99
2018-04-19T08:47:50.506Z,26.18
2018-04-19T08:48:50.516Z,26.15
2018-04-19T08:49:50.519Z,26.16
2018-04-19T08:50:50.523Z,25.90
2018-04-19T08:51:50.539Z,25.81
2018-04-19T08:52:50.544Z,26.00
2018-04-19T08:53:50.556Z,26.06
2018-04-19T08:54:50.562Z,26.15
2018-04-19T08:55:50.572Z,26.19
2018-04-19T08:56:50.577Z,26.25
2018-04-19T08:57:50.592Z,26.41
2018-04-19T08:58:50.601Z,26.51
2018-04-19T08:59:50.623Z,26.65
2018-04-19T09:00:50.620Z,26.83
2018-04-19T09:01:50.636Z,26.97
2018-04-19T09:02:50.635Z,26.89
2018-04-19T09:03:50.648Z,27.03
2018-04-19T09:04:50.655Z,26.99
2018-04-19T09:05:50.663Z,27.15
2018-04-19T09:06:50.682Z,27.15
2018-04-19T09:07:50.696Z,27.27
2018-04-19T09:08:50.698Z,27.48
2018-04-19T09:09:50.713Z,27.87
2018-04-19T09:10:50.723Z,28.20
2018-04-19T09:11:50.733Z,28.17
2018-04-19T09:12:50.741Z,27.74
2018-04-19T09:13:50.756Z,27.65
2018-04-19T09:14:50.760Z,27.64
2018-04-19T09:15:50.807Z,27.67
2018-04-19T09:16:50.784Z,27.65
2018-04-19T09:17:50.788Z,27.73
2018-04-19T09:18:50.805Z,27.86
2018-04-19T09:19:50.816Z,28.23
2018-04-19T09:20:50.825Z,28.88
2018-04-19T09:21:50.832Z,29.31
2018-04-19T09:22:50.845Z,29.90
2018-04-19T09:23:50.856Z,30.87
2018-04-19T09:24:50.866Z,31.55
2018-04-19T09:25:50.873Z,31.90
2018-04-19T09:26:50.888Z,31.84
2018-04-19T09:27:50.899Z,31.46
2018-04-19T09:28:50.907Z,30.84
2018-04-19T09:29:50.920Z,30.70
2018-04-19T09:30:50.929Z,30.50
2018-04-19T09:31:50.947Z,30.46
2018-04-19T09:32:50.954Z,31.02
2018-04-19T09:33:50.965Z,31.65
2018-04-19T09:34:50.978Z,32.12
2018-04-19T09:35:50.987Z,32.27
2018-04-19T09:36:51.003Z,32.31
2018-04-19T09:37:51.013Z,32.16
2018-04-19T09:38:51.018Z,31.87
2018-04-19T09:39:51.031Z,32.11
2018-04-19T09:40:51.046Z,32.26
2018-04-19T09:41:51.064Z,32.40
2018-04-19T09:42:51.068Z,32.68
2018-04-19T09:43:51.082Z,33.09
2018-04-19T09:44:51.091Z,33.20
2018-04-19T09:45:51.100Z,33.01
2018-04-19T09:46:51.112Z,32.92
2018-04-19T09:47:51.125Z,32.92
2018-04-19T09:48:51.143Z,33.09
2018-04-19T09:49:51.152Z,33.42
2018-04-19T09:50:51.161Z,33.57
2018-04-19T09:51:51.182Z,33.64
2018-04-19T09:52:51.183Z,33.47
2018-04-19T09:53:51.284Z,32.89
2018-04-19T09:54:51.211Z,32.51
2018-04-19T09:55:51.220Z,32.63
2018-04-19T09:56:51.229Z,32.18
2018-04-19T09:57:51.241Z,31.64
2018-04-19T09:58:51.260Z,31.36
2018-04-19T09:59:51.264Z,32.08
2018-04-19T10:00:51.278Z,32.34
2018-04-19T10:01:51.294Z,32.15
2018-04-19T10:02:51.314Z,32.64
2018-04-19T10:03:51.316Z,33.22
2018-04-19T10:04:51.326Z,33.61
2018-04-19T10:05:51.343Z,33.98
2018-04-19T10:06:51.390Z,33.53
2018-04-19T10:07:51.367Z,33.24
2018-04-19T10:08:51.380Z,32.77
2018-04-19T10:09:51.384Z,32.19
2018-04-19T10:10:51.396Z,32.30
2018-04-19T10:11:51.411Z,32.52
2018-04-19T10:12:51.431Z,32.37
2018-04-19T10:13:51.442Z,32.09
2018-04-19T10:14:51.465Z,32.38
2018-04-19T10:15:51.480Z,32.16
2018-04-19T10:16:51.474Z,32.29
2018-04-19T10:17:51.489Z,32.78
2018-04-19T10:18:51.499Z,33.64
2018-04-19T10:19:51.514Z,34.29
2018-04-19T10:20:51.532Z,34.71
2018-04-19T10:21:51.540Z,34.95
2018-04-19T10:22:51.561Z,35.27
2018-04-19T10:23:51.570Z,35.58
2018-04-19T10:24:51.572Z,35.55
2018-04-19T10:25:51.585Z,35.31
2018-04-19T10:26:51.599Z,35.34
2018-04-19T10:27:51.652Z,35.45
2018-04-19T10:28:51.624Z,35.19
2018-04-19T10:29:51.641Z,34.99
2018-04-19T10:30:51.666Z,34.54
2018-04-19T10:31:51.662Z,34.38
2018-04-19T10:32:52.239Z,34.23
2018-04-19T10:33:51.709Z,34.57
2018-04-19T10:34:51.704Z,34.55
2018-04-19T10:35:51.717Z,34.23
2018-04-19T10:36:51.730Z,34.35
2018-04-19T10:37:51.741Z,34.75
2018-04-19T10:38:51.754Z,35.04
2018-04-19T10:39:51.762Z,35.11
2018-04-19T10:40:51.786Z,34.64
2018-04-19T10:41:51.792Z,33.55
2018-04-19T10:42:51.806Z,33.07
2018-04-19T10:43:51.821Z,32.92
2018-04-19T10:44:51.835Z,32.68
2018-04-19T10:45:51.845Z,32.68
2018-04-19T10:46:51.857Z,32.67
2018-04-19T10:47:51.874Z,33.00
2018-04-19T10:48:51.886Z,33.15
2018-04-19T10:49:51.912Z,33.81
2018-04-19T10:50:51.913Z,33.50
2018-04-19T10:51:51.936Z,32.92
2018-04-19T10:52:51.937Z,32.63
2018-04-19T10:53:51.957Z,32.01
2018-04-19T10:54:51.977Z,31.85
2018-04-19T10:55:51.989Z,31.89
2018-04-19T10:56:51.994Z,32.71
2018-04-19T10:57:52.018Z,33.43
2018-04-19T10:58:52.025Z,33.95
2018-04-19T10:59:52.038Z,34.50
2018-04-19T11:00:52.057Z,35.00
2018-04-19T11:01:52.068Z,35.49
2018-04-19T11:02:52.080Z,35.83
2018-04-19T11:03:52.092Z,36.07
2018-04-19T11:04:52.105Z,35.95
2018-04-19T11:05:52.121Z,36.02
2018-04-19T11:06:52.131Z,35.66
2018-04-19T11:07:52.144Z,35.12
2018-04-19T11:08:52.164Z,35.14
2018-04-19T11:09:52.177Z,35.02
2018-04-19T11:10:52.190Z,35.05
2018-04-19T11:11:52.198Z,34.96
2018-04-19T11:12:52.214Z,34.36
2018-04-19T11:13:52.231Z,33.65
2018-04-19T11:14:52.241Z,33.08
2018-04-19T11:15:52.265Z,33.79
2018-04-19T11:16:52.269Z,34.42
2018-04-19T11:17:52.292Z,34.64
2018-04-19T11:18:52.296Z,34.90
2018-04-19T11:19:52.303Z,35.19
2018-04-19T11:20:52.324Z,35.52
2018-04-19T11:21:52.336Z,35.97
2018-04-19T11:22:52.414Z,36.20
2018-04-19T11:23:52.359Z,36.25
2018-04-19T11:24:52.378Z,36.30
2018-04-19T11:25:52.388Z,36.57
2018-04-19T11:26:52.399Z,36.73
2018-04-19T11:27:52.420Z,36.88
2018-04-19T11:28:52.425Z,36.61
2018-04-19T11:29:52.442Z,36.23
2018-04-19T11:30:52.459Z,35.73
2018-04-19T11:31:52.469Z,35.29
2018-04-19T11:32:52.477Z,34.92
2018-04-19T11:33:52.488Z,34.70
2018-04-19T11:34:52.500Z,35.05
2018-04-19T11:35:52.518Z,35.18
2018-04-19T11:36:52.535Z,35.10
2018-04-19T11:37:52.553Z,34.61
2018-04-19T11:38:52.555Z,34.38
2018-04-19T11:39:52.571Z,34.18
2018-04-19T11:40:52.589Z,33.49
2018-04-19T11:41:52.599Z,32.82
2018-04-19T11:42:52.614Z,32.85
2018-04-19T11:43:52.639Z,33.69
2018-04-19T11:44:52.633Z,34.81
2018-04-19T11:45:52.648Z,35.27
2018-04-19T11:46:52.658Z,34.96
2018-04-19T11:47:52.677Z,34.55
2018-04-19T11:48:52.689Z,34.40
2018-04-19T11:49:52.731Z,33.83
2018-04-19T11:50:52.715Z,33.34
2018-04-19T11:51:52.726Z,33.12
2018-04-19T11:52:52.741Z,33.64
2018-04-19T11:53:52.754Z,33.53
2018-04-19T11:54:52.768Z,33.73
2018-04-19T11:55:52.782Z,33.68
2018-04-19T11:56:52.793Z,33.50
2018-04-19T11:57:52.809Z,33.47
2018-04-19T11:58:52.816Z,33.49
2018-04-19T11:59:52.830Z,33.39
2018-04-19T12:00:52.888Z,33.12
2018-04-19T12:01:52.862Z,33.04
2018-04-19T12:02:52.872Z,32.23
2018-04-19T12:03:52.884Z,31.56
2018-04-19T12:04:52.896Z,31.24
2018-04-19T12:05:52.913Z,31.44
2018-04-19T12:06:52.926Z,31.21
2018-04-19T12:07:52.942Z,31.07
2018-04-19T12:08:52.951Z,30.85
2018-04-19T12:09:52.965Z,30.73
2018-04-19T12:10:52.982Z,30.25
2018-04-19T12:11:52.988Z,30.02
2018-04-19T12:12:53.004Z,29.69
2018-04-19T12:13:53.013Z,29.90
2018-04-19T12:14:53.027Z,30.09
2018-04-19T12:15:53.043Z,30.19
2018-04-19T12:16:53.052Z,30.28
2018-04-19T12:17:53.059Z,30.34
2018-04-19T12:18:53.071Z,30.23
2018-04-19T12:19:53.080Z,30.06
2018-04-19T12:20:53.098Z,29.87
2018-04-19T12:21:53.112Z,29.75
2018-04-19T12:22:53.119Z,29.24
2018-04-19T12:23:53.131Z,29.14
2018-04-19T12:24:53.139Z,29.31
2018-04-19T12:25:53.152Z,29.34
2018-04-19T12:26:53.163Z,29.44
2018-04-19T12:27:53.179Z,29.95
2018-04-19T12:28:53.189Z,30.16
2018-04-19T12:29:53.201Z,30.25
2018-04-19T12:30:53.210Z,29.86
2018-04-19T12:31:53.217Z,29.54
2018-04-19T12:32:53.230Z,29.35
2018-04-19T12:33:53.237Z,29.31
2018-04-19T12:34:53.255Z,29.34
2018-04-19T12:35:53.268Z,29.51
2018-04-19T12:36:53.278Z,29.61
2018-04-19T12:37:53.284Z,29.78
2018-04-19T12:38:53.312Z,30.19
2018-04-19T12:39:53.300Z,30.30
2018-04-19T12:40:53.313Z,30.23
2018-04-19T12:41:53.324Z,30.28
2018-04-19T12:42:53.342Z,30.91
2018-04-19T12:43:53.348Z,30.91
2018-04-19T12:44:53.378Z,30.87
2018-04-19T12:45:53.359Z,30.73
2018-04-19T12:46:53.379Z,30.30
2018-04-19T12:47:53.387Z,29.93
2018-04-19T12:48:53.392Z,29.73
2018-04-19T12:49:53.404Z,29.68
2018-04-19T12:50:53.411Z,29.63
2018-04-19T12:51:53.433Z,29.78
2018-04-19T12:52:53.438Z,29.63
2018-04-19T12:53:53.441Z,29.69
2018-04-19T12:54:53.450Z,29.60
2018-04-19T12:55:53.455Z,29.47
2018-04-19T12:56:53.469Z,29.51
2018-04-19T12:57:53.484Z,29.72
2018-04-19T12:58:53.486Z,29.66
2018-04-19T12:59:53.497Z,29.82
2018-04-19T13:00:53.505Z,30.06
2018-04-19T13:01:53.519Z,30.30
2018-04-19T13:02:53.528Z,30.37
2018-04-19T13:03:53.539Z,30.65
2018-04-19T13:04:53.546Z,31.10
2018-04-19T13:05:53.553Z,30.97
2018-04-19T13:06:53.568Z,30.62
2018-04-19T13:07:53.578Z,30.50
2018-04-19T13:08:53.586Z,30.57
2018-04-19T13:09:53.598Z,30.53
2018-04-19T13:10:53.654Z,30.66
2018-04-19T13:11:53.619Z,30.61
2018-04-19T13:12:53.630Z,30.51
2018-04-19T13:13:53.633Z,30.51